Time,TemperatureF,DewpointF,PressureIn,WindDirection,WindDirectionDegrees,WindSpeedMPH,WindSpeedGustMPH,Humidity,HourlyPrecipIn,Conditions,Clouds,dailyrainin,SoftwareType,DateUTC
2013-03-18 00:00:00,59.4,56.4,30.03,SW,225,0.0,0.0,90,0.00,OVC,,0.00,WeatherDisplay:10.37,2013-03-18 04:00:00,
2013-03-18 00:02:00,59.4,56.4,30.02,SW,225,0.0,0.0,90,0.00,OVC,,0.00,WeatherDisplay:10.37,2013-03-18 04:02:00,
2013-03-18 00:07:00,59.2,56.6,30.02,SW,225,0.0,1.1,91,0.00,OVC,,0.00,WeatherDisplay:10.37,2013-03-18 04:07:00,
2013-03-18 00:12:00,59.2,56.6,30.02,SW,225,0.0,0.0,91,0.00,OVC,,0.00,WeatherDisplay:10.37,2013-03-18 04:12:00,
2013-03-18 00:17:00,59.2,56.2,30.02,SW,225,0.0,0.0,90,0.00,OVC,,0.00,WeatherDisplay:10.37,2013-03-18 04:17:00,
2013-03-18 00:22:00,59.2,56.6,30.02,SW,225,0.0,0.0,91,0.00,OVC,,0.00,WeatherDisplay:10.37,2013-03-18 04:22:00,
2013-03-18 00:27:00,59.2,56.6,30.01,SW,225,0.0,0.0,91,0.00,OVC,,0.00,WeatherDisplay:10.37,2013-03-18 04:27:00,
2013-03-18 00:32:00,59.2,56.6,30.01,SW,225,0.0,0.0,91,0.00,OVC,,0.00,WeatherDisplay:10.37,2013-03-18 04:32:00,
2013-03-18 00:37:00,59.2,56.6,30.01,SW,225,0.0,0.0,91,0.00,OVC,,0.00,WeatherDisplay:10.37,2013-03-18 04:37:00,
2013-03-18 00:42:00,59.2,56.6,30.01,SW,225,0.0,0.0,91,0.00,OVC,,0.00,WeatherDisplay:10.37,2013-03-18 04:42:00,
2013-03-18 00:47:00,59.2,56.9,30.01,SW,225,0.0,0.0,92,0.00,OVC,,0.00,WeatherDisplay:10.37,2013-03-18 04:47:00,
2013-03-18 00:52:00,59.0,56.7,30.01,SW,225,0.0,0.0,92,0.00,OVC,,0.00,WeatherDisplay:10.37,2013-03-18 04:52:00,
2013-03-18 00:57:00,59.2,56.9,30.01,SW,225,0.0,0.0,92,0.00,OVC,,0.00,WeatherDisplay:10.37,2013-03-18 04:57:00,
2013-03-18 01:02:00,59.2,57.2,30.01,SW,225,0.0,0.0,93,0.00,OVC,,0.00,WeatherDisplay:10.37,2013-03-18 05:02:00,
2013-03-18 01:07:00,59.2,57.2,30.01,SW,225,0.0,0.0,93,0.00,OVC,,0.00,WeatherDisplay:10.37,2013-03-18 05:07:00,
2013-03-18 01:12:00,59.0,56.7,30.00,SW,225,0.0,0.0,92,0.00,OVC,,0.00,WeatherDisplay:10.37,2013-03-18 05:12:00,
2013-03-18 01:17:00,58.8,56.5,30.01,SW,225,0.0,0.0,92,0.00,OVC,,0.00,WeatherDisplay:10.37,2013-03-18 05:17:00,
2013-03-18 01:22:00,58.8,56.8,30.00,SW,225,0.0,0.0,93,0.00,OVC,,0.00,WeatherDisplay:10.37,2013-03-18 05:22:00,
2013-03-18 01:27:00,58.8,56.8,30.01,SW,225,0.0,0.0,93,0.00,OVC,,0.00,WeatherDisplay:10.37,2013-03-18 05:27:00,
2013-03-18 01:32:00,58.8,56.8,30.00,SW,225,0.0,0.0,93,0.00,OVC,,0.00,WeatherDisplay:10.37,2013-03-18 05:32:00,
2013-03-18 01:37:00,58.8,57.1,30.00,SW,225,0.0,0.0,94,0.00,OVC,,0.00,WeatherDisplay:10.37,2013-03-18 05:37:00,
2013-03-18 01:42:00,58.8,57.1,30.00,SW,225,0.0,0.0,94,0.00,OVC,,0.00,WeatherDisplay:10.37,2013-03-18 05:42:00,
2013-03-18 01:47:00,58.8,57.1,30.00,SW,225,0.0,0.0,94,0.00,OVC,,0.00,WeatherDisplay:10.37,2013-03-18 05:47:00,
2013-03-18 01:52:00,58.6,56.9,30.00,SW,225,0.0,0.0,94,0.00,OVC,,0.00,WeatherDisplay:10.37,2013-03-18 05:52:00,
2013-03-18 01:57:00,58.6,56.9,29.99,SW,225,0.0,0.0,94,0.00,OVC,,0.00,WeatherDisplay:10.37,2013-03-18 05:57:00,
2013-03-18 02:02:00,58.6,56.9,29.99,SW,225,0.0,0.0,94,0.00,OVC,,0.00,WeatherDisplay:10.37,2013-03-18 06:02:00,
2013-03-18 02:07:00,58.6,56.9,29.99,SW,225,0.0,0.0,94,0.00,OVC,,0.00,WeatherDisplay:10.37,2013-03-18 06:07:00,
2013-03-18 02:12:00,58.8,57.1,29.99,SW,225,0.0,0.0,94,0.00,OVC,,0.00,WeatherDisplay:10.37,2013-03-18 06:12:00,
2013-03-18 02:17:00,58.6,56.9,29.99,SW,225,0.0,0.0,94,0.02,RA,,0.02,WeatherDisplay:10.37,2013-03-18 06:17:00,
2013-03-18 02:22:00,58.6,56.9,29.99,SW,225,0.0,0.0,94,0.02,RA,,0.02,WeatherDisplay:10.37,2013-03-18 06:22:00,
2013-03-18 02:27:00,58.6,56.9,30.00,SW,225,0.0,0.0,94,0.02,BKN,,0.02,WeatherDisplay:10.37,2013-03-18 06:27:00,
2013-03-18 02:32:00,58.5,56.7,29.99,SW,225,0.0,0.0,94,0.02,BKN,,0.02,WeatherDisplay:10.37,2013-03-18 06:32:00,
2013-03-18 02:37:00,58.6,56.9,29.99,SW,225,0.0,0.0,94,0.02,BKN,,0.02,WeatherDisplay:10.37,2013-03-18 06:37:00,
2013-03-18 02:42:00,58.6,56.9,29.99,SW,225,0.0,0.0,94,0.02,BKN,,0.02,WeatherDisplay:10.37,2013-03-18 06:42:00,
2013-03-18 02:47:00,58.6,56.9,29.99,SW,225,0.0,0.0,94,0.02,BKN,,0.02,WeatherDisplay:10.37,2013-03-18 06:47:00,
2013-03-18 02:52:00,58.6,56.9,29.99,SW,225,0.0,0.0,94,0.02,BKN,,0.02,WeatherDisplay:10.37,2013-03-18 06:52:00,
2013-03-18 02:57:00,58.5,56.7,29.99,SW,225,0.0,0.0,94,0.02,BKN,,0.02,WeatherDisplay:10.37,2013-03-18 06:57:00,
2013-03-18 03:02:00,58.6,56.9,29.99,SW,225,0.0,0.0,94,0.02,BKN,,0.02,WeatherDisplay:10.37,2013-03-18 07:02:00,
2013-03-18 03:07:00,58.6,56.9,29.99,SW,225,0.0,0.0,94,0.02,BKN,,0.02,WeatherDisplay:10.37,2013-03-18 07:07:00,
2013-03-18 03:12:00,58.6,56.9,29.99,SW,225,0.0,0.0,94,0.02,BKN,,0.02,WeatherDisplay:10.37,2013-03-18 07:12:00,
2013-03-18 03:17:00,58.5,56.7,29.98,SW,225,0.0,0.0,94,0.00,BKN,,0.02,WeatherDisplay:10.37,2013-03-18 07:17:00,
2013-03-18 03:22:00,58.5,56.7,29.98,SW,225,0.0,0.0,94,0.00,BKN,,0.02,WeatherDisplay:10.37,2013-03-18 07:22:00,
2013-03-18 03:28:00,58.5,56.7,29.97,SW,225,0.0,0.0,94,0.00,BKN,,0.02,WeatherDisplay:10.37,2013-03-18 07:28:00,
2013-03-18 03:33:00,58.3,56.6,29.97,SW,225,0.0,0.0,94,0.00,BKN,,0.02,WeatherDisplay:10.37,2013-03-18 07:33:00,
2013-03-18 03:38:00,58.3,56.6,29.97,SW,225,0.0,0.0,94,0.00,BKN,,0.02,WeatherDisplay:10.37,2013-03-18 07:38:00,
2013-03-18 03:43:00,58.3,56.6,29.97,SW,225,0.0,0.0,94,0.00,BKN,,0.02,WeatherDisplay:10.37,2013-03-18 07:43:00,
2013-03-18 03:48:00,58.3,56.6,29.97,SW,225,0.0,0.0,94,0.00,BKN,,0.02,WeatherDisplay:10.37,2013-03-18 07:48:00,
2013-03-18 03:53:00,58.5,56.7,29.96,SW,225,0.0,0.0,94,0.00,BKN,,0.02,WeatherDisplay:10.37,2013-03-18 07:53:00,
2013-03-18 03:58:00,58.6,56.9,29.96,SW,225,0.0,0.0,94,0.00,BKN,,0.02,WeatherDisplay:10.37,2013-03-18 07:58:00,
2013-03-18 04:03:00,58.6,56.9,29.96,SW,225,0.0,0.0,94,0.00,BKN,,0.02,WeatherDisplay:10.37,2013-03-18 08:03:00,
2013-03-18 04:08:00,58.5,56.7,29.96,SW,225,0.0,0.0,94,0.00,BKN,,0.02,WeatherDisplay:10.37,2013-03-18 08:08:00,
2013-03-18 04:13:00,58.6,56.9,29.96,SW,225,0.0,0.0,94,0.00,BKN,,0.02,WeatherDisplay:10.37,2013-03-18 08:13:00,
2013-03-18 04:18:00,58.6,56.9,29.95,SW,225,0.0,0.0,94,0.00,BKN,,0.02,WeatherDisplay:10.37,2013-03-18 08:18:00,
2013-03-18 04:23:00,58.6,56.9,29.95,SW,225,0.0,0.0,94,0.00,BKN,,0.02,WeatherDisplay:10.37,2013-03-18 08:23:00,
2013-03-18 04:28:00,58.6,56.9,29.95,SW,225,0.0,0.0,94,0.00,BKN,,0.02,WeatherDisplay:10.37,2013-03-18 08:28:00,
2013-03-18 04:33:00,58.6,56.9,29.95,SW,225,0.0,0.0,94,0.00,BKN,,0.02,WeatherDisplay:10.37,2013-03-18 08:33:00,
2013-03-18 04:38:00,58.6,57.2,29.95,SW,225,0.0,0.0,95,0.00,BKN,,0.02,WeatherDisplay:10.37,2013-03-18 08:38:00,
2013-03-18 04:43:00,58.6,57.2,29.96,SW,225,0.0,0.0,95,0.00,BKN,,0.02,WeatherDisplay:10.37,2013-03-18 08:43:00,
2013-03-18 04:48:00,58.8,57.4,29.95,SW,225,0.0,0.0,95,0.00,BKN,,0.02,WeatherDisplay:10.37,2013-03-18 08:48:00,
2013-03-18 04:53:00,58.8,57.4,29.95,SW,225,0.0,0.0,95,0.00,BKN,,0.02,WeatherDisplay:10.37,2013-03-18 08:53:00,
2013-03-18 04:58:00,58.8,57.4,29.95,SW,225,0.0,0.0,95,0.00,BKN,,0.02,WeatherDisplay:10.37,2013-03-18 08:58:00,
2013-03-18 05:03:00,58.8,57.4,29.95,SW,225,0.0,0.0,95,0.00,-RA,,0.02,WeatherDisplay:10.37,2013-03-18 09:03:00,
2013-03-18 05:08:00,58.8,57.4,29.96,SW,225,0.0,0.0,95,0.00,-RA,,0.02,WeatherDisplay:10.37,2013-03-18 09:08:00,
2013-03-18 05:13:00,58.8,57.4,29.96,SW,225,0.0,0.0,95,0.00,-RA,,0.02,WeatherDisplay:10.37,2013-03-18 09:13:00,
2013-03-18 05:18:00,58.8,57.4,29.96,SW,225,0.0,0.0,95,0.00,-RA,,0.02,WeatherDisplay:10.37,2013-03-18 09:18:00,
2013-03-18 05:23:00,58.8,57.4,29.96,SW,225,0.0,0.0,95,0.00,-RA,,0.02,WeatherDisplay:10.37,2013-03-18 09:23:00,
2013-03-18 05:28:00,58.6,57.5,29.96,SW,225,0.0,0.0,96,0.00,-RA,,0.02,WeatherDisplay:10.37,2013-03-18 09:28:00,
2013-03-18 05:33:00,58.6,57.2,29.96,SW,225,0.0,0.0,95,0.00,OVC,,0.02,WeatherDisplay:10.37,2013-03-18 09:33:00,
2013-03-18 05:38:00,58.6,57.5,29.96,SW,225,0.0,0.0,96,0.00,OVC,,0.02,WeatherDisplay:10.37,2013-03-18 09:38:00,
2013-03-18 05:43:00,58.6,57.5,29.96,SW,225,0.0,0.0,96,0.00,OVC,,0.02,WeatherDisplay:10.37,2013-03-18 09:43:00,
2013-03-18 05:48:00,58.6,57.5,29.96,SW,225,0.0,0.0,96,0.00,OVC,,0.02,WeatherDisplay:10.37,2013-03-18 09:48:00,
2013-03-18 05:53:00,58.6,57.5,29.97,SW,225,0.0,0.0,96,0.00,OVC,,0.02,WeatherDisplay:10.37,2013-03-18 09:53:00,
2013-03-18 05:58:00,58.6,57.5,29.96,SW,225,0.0,0.0,96,0.00,OVC,,0.02,WeatherDisplay:10.37,2013-03-18 09:58:00,
2013-03-18 06:03:00,58.6,57.5,29.97,SW,225,0.0,0.0,96,0.00,OVC,,0.02,WeatherDisplay:10.37,2013-03-18 10:03:00,
2013-03-18 06:08:00,58.6,57.5,29.96,SW,225,0.0,0.0,96,0.00,OVC,,0.02,WeatherDisplay:10.37,2013-03-18 10:08:00,
2013-03-18 06:13:00,58.6,57.5,29.96,SW,225,0.0,0.0,96,0.00,OVC,,0.02,WeatherDisplay:10.37,2013-03-18 10:13:00,
2013-03-18 06:18:00,58.6,57.5,29.96,SW,225,0.0,0.0,96,0.00,OVC,,0.02,WeatherDisplay:10.37,2013-03-18 10:18:00,
2013-03-18 06:23:00,58.6,57.5,29.97,SW,225,0.0,0.0,96,0.00,OVC,,0.02,WeatherDisplay:10.37,2013-03-18 10:23:00,
2013-03-18 06:28:00,58.6,57.5,29.97,SW,225,0.0,0.0,96,0.00,OVC,,0.02,WeatherDisplay:10.37,2013-03-18 10:28:00,
2013-03-18 06:33:00,58.6,57.5,29.97,SW,225,0.0,0.0,96,0.00,OVC,,0.02,WeatherDisplay:10.37,2013-03-18 10:33:00,
2013-03-18 06:38:00,58.6,57.5,29.98,SW,225,0.0,0.0,96,0.00,OVC,,0.02,WeatherDisplay:10.37,2013-03-18 10:38:00,
2013-03-18 06:43:00,58.6,57.5,29.98,SW,225,0.0,0.0,96,0.00,OVC,,0.02,WeatherDisplay:10.37,2013-03-18 10:43:00,
2013-03-18 06:48:00,58.8,57.7,29.98,SW,225,0.0,0.0,96,0.00,OVC,,0.02,WeatherDisplay:10.37,2013-03-18 10:48:00,
2013-03-18 06:53:00,58.8,57.7,29.98,SW,225,0.0,0.0,96,0.00,OVC,,0.02,WeatherDisplay:10.37,2013-03-18 10:53:00,
2013-03-18 06:58:00,58.6,57.5,29.98,SW,225,0.0,0.0,96,0.00,OVC,,0.02,WeatherDisplay:10.37,2013-03-18 10:58:00,
2013-03-18 07:03:00,58.6,57.5,29.99,SW,225,0.0,0.0,96,0.00,OVC,,0.02,WeatherDisplay:10.37,2013-03-18 11:03:00,
2013-03-18 07:08:00,58.6,57.5,29.99,SW,225,0.0,0.0,96,0.00,OVC,,0.02,WeatherDisplay:10.37,2013-03-18 11:08:00,
2013-03-18 07:13:00,58.6,57.5,29.99,SW,225,0.0,0.0,96,0.00,OVC,,0.02,WeatherDisplay:10.37,2013-03-18 11:13:00,
2013-03-18 07:18:00,58.6,57.5,29.99,SW,225,0.0,0.0,96,0.00,OVC,,0.02,WeatherDisplay:10.37,2013-03-18 11:18:00,
2013-03-18 07:23:00,58.6,57.5,29.99,SW,225,0.0,0.0,96,0.00,OVC,,0.02,WeatherDisplay:10.37,2013-03-18 11:23:00,
2013-03-18 07:28:00,58.8,57.7,29.99,SW,225,0.0,0.0,96,0.00,OVC,,0.02,WeatherDisplay:10.37,2013-03-18 11:28:00,
2013-03-18 07:33:00,58.6,57.5,30.00,SW,225,0.0,0.0,96,0.00,OVC,,0.02,WeatherDisplay:10.37,2013-03-18 11:33:00,
2013-03-18 07:37:00,58.6,57.5,29.99,SW,225,0.0,0.0,96,0.00,OVC,,0.02,WeatherDisplay:10.37,2013-03-18 11:37:00,
2013-03-18 07:42:00,58.8,57.7,29.99,SW,225,0.0,0.0,96,0.00,OVC,,0.02,WeatherDisplay:10.37,2013-03-18 11:42:00,
2013-03-18 07:47:00,58.8,57.7,29.99,SW,225,0.0,0.0,96,0.00,OVC,,0.02,WeatherDisplay:10.37,2013-03-18 11:47:00,
2013-03-18 07:52:00,59.0,57.9,29.98,SW,225,0.0,0.0,96,0.00,OVC,,0.02,WeatherDisplay:10.37,2013-03-18 11:52:00,
2013-03-18 07:58:00,59.2,58.0,29.99,SW,225,0.0,0.0,96,0.00,OVC,,0.02,WeatherDisplay:10.37,2013-03-18 11:58:00,
2013-03-18 08:03:00,59.2,58.0,30.00,SW,225,0.0,0.0,96,0.00,BKN,,0.02,WeatherDisplay:10.37,2013-03-18 12:03:00,
2013-03-18 08:08:00,59.2,58.0,29.99,SW,225,0.0,0.0,96,0.00,BKN,,0.02,WeatherDisplay:10.37,2013-03-18 12:08:00,
2013-03-18 08:13:00,59.2,58.0,30.00,SW,225,0.0,0.0,96,0.00,BKN,,0.02,WeatherDisplay:10.37,2013-03-18 12:13:00,
2013-03-18 08:18:00,59.4,58.2,30.00,SW,225,0.0,0.0,96,0.00,BKN,,0.02,WeatherDisplay:10.37,2013-03-18 12:18:00,
2013-03-18 08:23:00,59.5,58.4,30.00,SW,225,0.0,0.0,96,0.00,BKN,,0.02,WeatherDisplay:10.37,2013-03-18 12:23:00,
2013-03-18 08:28:00,59.5,58.4,30.00,SW,225,0.0,0.0,96,0.00,BKN,,0.02,WeatherDisplay:10.37,2013-03-18 12:28:00,
2013-03-18 08:33:00,59.7,58.6,30.00,SW,225,0.0,0.0,96,0.00,BKN,,0.02,WeatherDisplay:10.37,2013-03-18 12:33:00,
2013-03-18 08:38:00,59.7,58.6,30.01,SW,225,0.0,0.0,96,0.00,BKN,,0.02,WeatherDisplay:10.37,2013-03-18 12:38:00,
2013-03-18 08:43:00,59.7,58.6,30.01,SW,225,0.0,0.0,96,0.00,BKN,,0.02,WeatherDisplay:10.37,2013-03-18 12:43:00,
2013-03-18 08:48:00,60.1,58.9,30.01,SW,225,0.0,0.0,96,0.00,BKN,,0.02,WeatherDisplay:10.37,2013-03-18 12:48:00,
2013-03-18 08:53:00,60.3,59.1,30.01,SW,225,0.0,0.0,96,0.00,BKN,,0.02,WeatherDisplay:10.37,2013-03-18 12:53:00,
2013-03-18 08:58:00,60.4,59.3,30.00,SW,225,0.0,0.0,96,0.00,BKN,,0.02,WeatherDisplay:10.37,2013-03-18 12:58:00,
2013-03-18 09:03:00,60.6,59.5,30.00,SW,225,0.0,0.0,96,0.00,BKN,,0.02,WeatherDisplay:10.37,2013-03-18 13:03:00,
2013-03-18 09:08:00,61.0,59.8,30.00,SW,225,0.0,0.0,96,0.00,BKN,,0.02,WeatherDisplay:10.37,2013-03-18 13:08:00,
2013-03-18 09:13:00,61.2,60.0,30.01,SW,225,0.0,0.0,96,0.00,BKN,,0.02,WeatherDisplay:10.37,2013-03-18 13:13:00,
2013-03-18 09:18:00,61.5,60.4,30.01,SW,225,0.0,0.0,96,0.00,BKN,,0.02,WeatherDisplay:10.37,2013-03-18 13:18:00,
2013-03-18 09:23:00,62.2,61.1,30.01,SW,225,0.0,0.0,96,0.00,BKN,,0.02,WeatherDisplay:10.37,2013-03-18 13:23:00,
2013-03-18 09:27:00,62.4,61.3,30.01,SW,225,0.0,0.0,96,0.00,BKN,,0.02,WeatherDisplay:10.37,2013-03-18 13:27:00,
2013-03-18 09:33:00,62.8,61.6,30.01,SW,225,0.0,0.0,96,0.00,BKN,,0.02,WeatherDisplay:10.37,2013-03-18 13:33:00,
2013-03-18 09:38:00,62.8,61.6,30.01,SW,225,0.0,0.0,96,0.00,BKN,,0.02,WeatherDisplay:10.37,2013-03-18 13:38:00,
2013-03-18 09:43:00,63.0,61.8,30.01,SW,225,0.0,0.0,96,0.00,BKN,,0.02,WeatherDisplay:10.37,2013-03-18 13:43:00,
2013-03-18 09:48:00,63.3,61.9,30.01,SW,225,0.0,0.0,95,0.00,BKN,,0.02,WeatherDisplay:10.37,2013-03-18 13:48:00,
2013-03-18 09:53:00,63.7,61.9,30.01,SW,225,0.0,0.0,94,0.00,BKN,,0.02,WeatherDisplay:10.37,2013-03-18 13:53:00,
2013-03-18 09:58:00,63.7,61.9,30.01,SW,225,0.0,0.0,94,0.00,BKN,,0.02,WeatherDisplay:10.37,2013-03-18 13:58:00,
2013-03-18 10:03:00,63.9,62.4,30.02,SW,225,0.0,0.0,95,0.00,BKN,,0.02,WeatherDisplay:10.37,2013-03-18 14:03:00,
2013-03-18 10:08:00,64.6,62.5,30.02,SW,225,0.0,0.0,93,0.00,OVC,,0.02,WeatherDisplay:10.37,2013-03-18 14:08:00,
2013-03-18 10:13:00,65.1,62.7,30.02,South,180,0.0,0.0,92,0.00,OVC,,0.02,WeatherDisplay:10.37,2013-03-18 14:13:00,
2013-03-18 10:18:00,65.5,62.5,30.02,South,180,0.0,0.0,90,0.00,OVC,,0.02,WeatherDisplay:10.37,2013-03-18 14:18:00,
2013-03-18 10:23:00,65.8,61.9,30.02,South,180,0.0,1.1,87,0.00,OVC,,0.02,WeatherDisplay:10.37,2013-03-18 14:23:00,
2013-03-18 10:28:00,66.7,62.7,30.02,South,180,0.0,0.0,87,0.00,OVC,,0.02,WeatherDisplay:10.37,2013-03-18 14:28:00,
2013-03-18 10:33:00,66.9,62.9,30.02,South,180,0.9,2.7,87,0.00,OVC,,0.02,WeatherDisplay:10.37,2013-03-18 14:33:00,
2013-03-18 10:38:00,67.8,63.1,30.02,SE,135,1.0,2.3,85,0.00,OVC,,0.02,WeatherDisplay:10.37,2013-03-18 14:38:00,
2013-03-18 10:43:00,69.6,63.9,30.01,SE,135,0.0,0.0,82,0.00,OVC,,0.02,WeatherDisplay:10.37,2013-03-18 14:43:00,
2013-03-18 10:48:00,69.3,62.8,30.02,South,180,0.0,2.3,80,0.00,OVC,,0.02,WeatherDisplay:10.37,2013-03-18 14:48:00,
2013-03-18 10:53:00,69.4,63.4,30.01,South,180,0.0,0.0,81,0.00,OVC,,0.02,WeatherDisplay:10.37,2013-03-18 14:53:00,
2013-03-18 10:58:00,70.7,63.1,30.02,SW,225,0.8,2.7,77,0.00,OVC,,0.02,WeatherDisplay:10.37,2013-03-18 14:58:00,
2013-03-18 11:03:00,70.7,63.1,30.01,SW,225,0.0,0.0,77,0.00,OVC,,0.02,WeatherDisplay:10.37,2013-03-18 15:03:00,
2013-03-18 11:08:00,71.6,64.0,30.01,SE,135,0.0,0.0,77,0.00,OVC,,0.02,WeatherDisplay:10.37,2013-03-18 15:08:00,
2013-03-18 11:13:00,72.5,64.1,30.01,SE,135,0.5,2.3,75,0.00,BKN,,0.02,WeatherDisplay:10.37,2013-03-18 15:13:00,
2013-03-18 11:18:00,72.5,63.7,30.01,SE,135,0.0,1.1,74,0.00,BKN,,0.02,WeatherDisplay:10.37,2013-03-18 15:18:00,
2013-03-18 11:23:00,72.3,63.6,30.01,SE,135,0.0,0.0,74,0.00,BKN,,0.02,WeatherDisplay:10.37,2013-03-18 15:23:00,
2013-03-18 11:28:00,72.1,63.0,30.01,SE,135,0.8,3.5,73,0.00,BKN,,0.02,WeatherDisplay:10.37,2013-03-18 15:28:00,
2013-03-18 11:33:00,72.1,63.0,30.01,SW,225,0.0,0.0,73,0.00,BKN,,0.02,WeatherDisplay:10.37,2013-03-18 15:33:00,
2013-03-18 11:38:00,74.5,64.9,30.01,East,90,1.4,4.6,72,0.00,BKN,,0.02,WeatherDisplay:10.37,2013-03-18 15:38:00,
2013-03-18 11:43:00,75.4,64.1,30.00,SW,225,1.6,5.8,68,0.00,BKN,,0.02,WeatherDisplay:10.37,2013-03-18 15:43:00,
2013-03-18 11:48:00,75.0,63.3,30.00,West,270,1.3,5.8,67,0.00,BKN,,0.02,WeatherDisplay:10.37,2013-03-18 15:48:00,
2013-03-18 11:52:00,74.3,62.2,30.01,West,270,0.1,3.5,66,0.00,BKN,,0.02,WeatherDisplay:10.37,2013-03-18 15:52:00,
2013-03-18 11:57:00,75.0,63.7,30.00,SE,135,0.1,2.7,68,0.00,BKN,,0.02,WeatherDisplay:10.37,2013-03-18 15:57:00,
2013-03-18 12:02:00,76.5,63.4,30.00,SE,135,1.7,5.8,64,0.00,BKN,,0.02,WeatherDisplay:10.37,2013-03-18 16:02:00,
2013-03-18 12:07:00,75.6,63.4,30.00,SW,225,1.8,4.6,66,0.00,BKN,,0.02,WeatherDisplay:10.37,2013-03-18 16:07:00,
2013-03-18 12:12:00,75.0,63.3,30.00,SW,225,0.0,0.0,67,0.00,BKN,,0.02,WeatherDisplay:10.37,2013-03-18 16:12:00,
2013-03-18 12:17:00,76.1,63.5,29.99,SW,225,1.7,4.6,65,0.00,BKN,,0.02,WeatherDisplay:10.37,2013-03-18 16:17:00,
2013-03-18 12:22:00,75.4,62.8,29.99,SW,225,2.3,3.5,65,0.00,BKN,,0.02,WeatherDisplay:10.37,2013-03-18 16:22:00,
2013-03-18 12:27:00,74.5,62.4,29.98,West,270,1.7,5.8,66,0.00,BKN,,0.02,WeatherDisplay:10.37,2013-03-18 16:27:00,
2013-03-18 12:32:00,76.8,62.3,29.98,South,180,2.4,5.8,61,0.00,BKN,,0.02,WeatherDisplay:10.37,2013-03-18 16:32:00,
2013-03-18 12:38:00,77.2,62.2,29.99,SW,225,1.7,2.7,60,0.00,BKN,,0.02,WeatherDisplay:10.37,2013-03-18 16:38:00,
2013-03-18 12:43:00,77.4,62.9,29.99,SW,225,2.2,3.5,61,0.00,BKN,,0.02,WeatherDisplay:10.37,2013-03-18 16:43:00,
2013-03-18 12:48:00,75.6,61.6,29.99,West,270,1.0,5.8,62,0.00,BKN,,0.02,WeatherDisplay:10.37,2013-03-18 16:48:00,
2013-03-18 12:53:00,74.8,61.8,29.98,SW,225,1.1,4.6,64,0.00,BKN,,0.02,WeatherDisplay:10.37,2013-03-18 16:53:00,
2013-03-18 12:58:00,74.7,62.1,29.98,SW,225,0.0,3.5,65,0.00,BKN,,0.02,WeatherDisplay:10.37,2013-03-18 16:58:00,
2013-03-18 13:03:00,76.6,62.6,29.97,SE,135,0.1,2.3,62,0.00,BKN,,0.02,WeatherDisplay:10.37,2013-03-18 17:03:00,
2013-03-18 13:07:00,79.0,63.4,29.97,South,180,0.4,2.3,59,0.00,BKN,,0.02,WeatherDisplay:10.37,2013-03-18 17:07:00,
2013-03-18 13:12:00,79.9,61.2,29.97,SW,225,1.6,5.8,53,0.00,BKN,,0.02,WeatherDisplay:10.37,2013-03-18 17:12:00,
2013-03-18 13:17:00,79.3,61.2,29.97,West,270,1.3,5.8,54,0.00,BKN,,0.02,WeatherDisplay:10.37,2013-03-18 17:17:00,
2013-03-18 13:22:00,80.2,60.5,29.97,SW,225,1.5,4.1,51,0.00,BKN,,0.02,WeatherDisplay:10.37,2013-03-18 17:22:00,
2013-03-18 13:27:00,79.3,60.2,29.96,West,270,1.4,4.6,52,0.00,BKN,,0.02,WeatherDisplay:10.37,2013-03-18 17:27:00,
2013-03-18 13:32:00,79.2,61.1,29.97,SW,225,1.6,5.8,54,0.00,BKN,,0.02,WeatherDisplay:10.37,2013-03-18 17:32:00,
2013-03-18 13:37:00,78.6,61.6,29.96,SW,225,0.8,4.6,56,0.00,BKN,,0.02,WeatherDisplay:10.37,2013-03-18 17:37:00,
2013-03-18 13:42:00,79.0,61.4,29.95,West,270,0.1,1.4,55,0.00,BKN,,0.02,WeatherDisplay:10.37,2013-03-18 17:42:00,
2013-03-18 13:47:00,78.6,62.1,29.95,West,270,1.3,3.5,57,0.00,BKN,,0.02,WeatherDisplay:10.37,2013-03-18 17:47:00,
2013-03-18 13:52:00,79.9,62.3,29.95,SW,225,1.7,4.6,55,0.00,BKN,,0.02,WeatherDisplay:10.37,2013-03-18 17:52:00,
2013-03-18 13:57:00,79.5,61.9,29.95,SW,225,0.4,2.5,55,0.00,BKN,,0.02,WeatherDisplay:10.37,2013-03-18 17:57:00,
2013-03-18 14:02:00,79.3,61.8,29.94,West,270,0.4,6.9,55,0.00,BKN,,0.02,WeatherDisplay:10.37,2013-03-18 18:02:00,
2013-03-18 14:07:00,78.8,61.8,29.94,SW,225,2.6,5.8,56,0.00,BKN,,0.02,WeatherDisplay:10.37,2013-03-18 18:07:00,
2013-03-18 14:12:00,78.4,61.4,29.94,SW,225,1.8,5.8,56,0.00,BKN,,0.02,WeatherDisplay:10.37,2013-03-18 18:12:00,
2013-03-18 14:17:00,79.0,62.4,29.93,West,270,1.8,5.8,57,0.00,BKN,,0.02,WeatherDisplay:10.37,2013-03-18 18:17:00,
2013-03-18 14:22:00,79.0,61.9,29.93,West,270,1.4,2.7,56,0.00,BKN,,0.02,WeatherDisplay:10.37,2013-03-18 18:22:00,
2013-03-18 14:27:00,79.3,61.8,29.92,SW,225,1.5,4.6,55,0.00,BKN,,0.02,WeatherDisplay:10.37,2013-03-18 18:27:00,
2013-03-18 14:32:00,79.3,62.3,29.92,SW,225,0.2,2.3,56,0.00,BKN,,0.02,WeatherDisplay:10.37,2013-03-18 18:32:00,
2013-03-18 14:37:00,79.5,61.9,29.91,South,180,1.6,4.6,55,0.00,BKN,,0.02,WeatherDisplay:10.37,2013-03-18 18:37:00,
2013-03-18 14:42:00,80.2,63.1,29.91,SW,225,2.3,5.8,56,0.00,BKN,,0.02,WeatherDisplay:10.37,2013-03-18 18:42:00,
2013-03-18 14:47:00,80.2,63.1,29.91,West,270,2.5,5.8,56,0.00,BKN,,0.02,WeatherDisplay:10.37,2013-03-18 18:47:00,
2013-03-18 14:52:00,79.2,62.6,29.91,West,270,2.2,4.6,57,0.00,BKN,,0.02,WeatherDisplay:10.37,2013-03-18 18:52:00,
2013-03-18 14:57:00,78.6,62.6,29.90,SW,225,0.0,1.1,58,0.00,BKN,,0.02,WeatherDisplay:10.37,2013-03-18 18:57:00,
2013-03-18 15:02:00,78.8,62.8,29.90,SW,225,1.9,5.8,58,0.00,BKN,,0.02,WeatherDisplay:10.37,2013-03-18 19:02:00,
2013-03-18 15:07:00,79.5,61.4,29.90,East,90,2.2,5.8,54,0.00,BKN,,0.02,WeatherDisplay:10.37,2013-03-18 19:07:00,
2013-03-18 15:12:00,79.7,63.1,29.90,SW,225,1.8,2.3,57,0.00,BKN,,0.02,WeatherDisplay:10.37,2013-03-18 19:12:00,
2013-03-18 15:17:00,79.3,62.8,29.89,SW,225,1.5,4.6,57,0.00,BKN,,0.02,WeatherDisplay:10.37,2013-03-18 19:17:00,
2013-03-18 15:22:00,79.2,62.1,29.89,West,270,0.0,2.3,56,0.00,BKN,,0.02,WeatherDisplay:10.37,2013-03-18 19:22:00,
2013-03-18 15:27:00,79.7,62.6,29.89,South,180,2.0,5.8,56,0.00,BKN,,0.02,WeatherDisplay:10.37,2013-03-18 19:27:00,
2013-03-18 15:32:00,79.3,62.8,29.89,South,180,0.0,0.0,57,0.00,BKN,,0.02,WeatherDisplay:10.37,2013-03-18 19:32:00,
2013-03-18 15:37:00,79.2,62.6,29.89,SW,225,1.5,2.7,57,0.00,BKN,,0.02,WeatherDisplay:10.37,2013-03-18 19:37:00,
2013-03-18 15:42:00,79.0,61.9,29.89,SW,225,0.0,0.0,56,0.00,BKN,,0.02,WeatherDisplay:10.37,2013-03-18 19:42:00,
2013-03-18 15:47:00,79.0,61.4,29.89,SW,225,1.4,4.6,55,0.00,BKN,,0.02,WeatherDisplay:10.37,2013-03-18 19:47:00,
2013-03-18 15:52:00,78.1,61.6,29.89,SW,225,0.2,2.3,57,0.00,BKN,,0.02,WeatherDisplay:10.37,2013-03-18 19:52:00,
2013-03-18 15:58:00,77.7,62.2,29.88,SW,225,1.0,2.3,59,0.00,BKN,,0.02,WeatherDisplay:10.37,2013-03-18 19:58:00,
2013-03-18 16:03:00,78.1,62.6,29.88,SW,225,0.1,0.0,59,0.00,BKN,,0.02,WeatherDisplay:10.37,2013-03-18 20:03:00,
2013-03-18 16:08:00,78.6,62.1,29.89,SW,225,1.4,5.4,57,0.00,BKN,,0.02,WeatherDisplay:10.37,2013-03-18 20:08:00,
2013-03-18 16:13:00,78.4,61.9,29.87,SW,225,0.4,2.3,57,0.00,BKN,,0.02,WeatherDisplay:10.37,2013-03-18 20:13:00,
2013-03-18 16:18:00,78.4,61.4,29.88,SW,225,0.7,2.3,56,0.00,BKN,,0.02,WeatherDisplay:10.37,2013-03-18 20:18:00,
2013-03-18 16:23:00,78.6,62.1,29.88,South,180,0.0,0.0,57,0.00,BKN,,0.02,WeatherDisplay:10.37,2013-03-18 20:23:00,
2013-03-18 16:28:00,79.0,62.4,29.88,South,180,0.0,0.0,57,0.00,BKN,,0.02,WeatherDisplay:10.37,2013-03-18 20:28:00,
2013-03-18 16:33:00,79.0,62.4,29.87,SW,225,0.7,4.6,57,0.00,BKN,,0.02,WeatherDisplay:10.37,2013-03-18 20:33:00,
2013-03-18 16:38:00,78.3,62.3,29.88,SW,225,0.3,2.3,58,0.00,BKN,,0.02,WeatherDisplay:10.37,2013-03-18 20:38:00,
2013-03-18 16:43:00,78.4,61.9,29.88,South,180,0.9,2.7,57,0.00,BKN,,0.02,WeatherDisplay:10.37,2013-03-18 20:43:00,
2013-03-18 16:48:00,78.1,61.6,29.88,West,270,2.1,5.8,57,0.00,BKN,,0.02,WeatherDisplay:10.37,2013-03-18 20:48:00,
2013-03-18 16:53:00,77.9,61.9,29.88,SW,225,0.5,2.3,58,0.00,BKN,,0.02,WeatherDisplay:10.37,2013-03-18 20:53:00,
2013-03-18 16:58:00,78.1,62.1,29.88,SW,225,0.1,2.3,58,0.00,BKN,,0.02,WeatherDisplay:10.37,2013-03-18 20:58:00,
2013-03-18 17:03:00,78.1,62.1,29.88,SW,225,0.2,3.5,58,0.00,BKN,,0.02,WeatherDisplay:10.37,2013-03-18 21:03:00,
2013-03-18 17:08:00,77.9,61.4,29.88,West,270,0.9,4.6,57,0.00,BKN,,0.02,WeatherDisplay:10.37,2013-03-18 21:08:00,
2013-03-18 17:13:00,77.9,61.9,29.87,West,270,0.5,2.3,58,0.00,BKN,,0.02,WeatherDisplay:10.37,2013-03-18 21:13:00,
2013-03-18 17:18:00,77.9,61.9,29.87,West,270,1.3,2.7,58,0.00,BKN,,0.02,WeatherDisplay:10.37,2013-03-18 21:18:00,
2013-03-18 17:23:00,77.7,62.2,29.87,SW,225,0.5,2.3,59,0.00,BKN,,0.02,WeatherDisplay:10.37,2013-03-18 21:23:00,
2013-03-18 17:28:00,77.7,62.7,29.86,SE,135,0.0,1.1,60,0.00,BKN,,0.02,WeatherDisplay:10.37,2013-03-18 21:28:00,
2013-03-18 17:33:00,77.7,62.7,29.86,SW,225,0.9,4.6,60,0.00,BKN,,0.02,WeatherDisplay:10.37,2013-03-18 21:33:00,
2013-03-18 17:37:00,77.5,63.0,29.87,West,270,0.0,1.1,61,0.00,BKN,,0.02,WeatherDisplay:10.37,2013-03-18 21:37:00,
2013-03-18 17:42:00,77.5,63.0,29.87,West,270,0.0,0.0,61,0.00,BKN,,0.02,WeatherDisplay:10.37,2013-03-18 21:42:00,
2013-03-18 17:47:00,77.5,63.0,29.87,West,270,0.1,2.7,61,0.00,BKN,,0.02,WeatherDisplay:10.37,2013-03-18 21:47:00,
2013-03-18 17:52:00,77.4,63.3,29.87,SW,225,0.2,2.3,62,0.00,BKN,,0.02,WeatherDisplay:10.37,2013-03-18 21:52:00,
2013-03-18 17:58:00,77.4,62.9,29.87,SW,225,1.2,5.8,61,0.00,BKN,,0.02,WeatherDisplay:10.37,2013-03-18 21:58:00,
2013-03-18 18:03:00,77.2,63.2,29.87,SW,225,0.0,1.3,62,0.00,BKN,,0.02,WeatherDisplay:10.37,2013-03-18 22:03:00,
2013-03-18 18:08:00,77.2,63.2,29.87,SW,225,0.1,1.3,62,0.00,BKN,,0.02,WeatherDisplay:10.37,2013-03-18 22:08:00,
2013-03-18 18:13:00,77.2,63.2,29.87,SW,225,0.0,1.1,62,0.00,BKN,,0.02,WeatherDisplay:10.37,2013-03-18 22:13:00,
2013-03-18 18:18:00,76.8,63.3,29.87,SW,225,0.1,0.0,63,0.00,BKN,,0.02,WeatherDisplay:10.37,2013-03-18 22:18:00,
2013-03-18 18:23:00,76.8,63.7,29.87,SW,225,0.0,0.0,64,0.00,BKN,,0.02,WeatherDisplay:10.37,2013-03-18 22:23:00,
2013-03-18 18:28:00,76.8,63.7,29.87,SW,225,0.2,0.0,64,0.00,BKN,,0.02,WeatherDisplay:10.37,2013-03-18 22:28:00,
2013-03-18 18:33:00,76.6,63.5,29.87,SW,225,0.9,2.6,64,0.00,BKN,,0.02,WeatherDisplay:10.37,2013-03-18 22:33:00,
2013-03-18 18:38:00,76.6,64.0,29.87,SW,225,0.0,0.0,65,0.00,BKN,,0.02,WeatherDisplay:10.37,2013-03-18 22:38:00,
2013-03-18 18:43:00,76.3,63.6,29.87,SW,225,0.0,0.0,65,0.00,BKN,,0.02,WeatherDisplay:10.37,2013-03-18 22:43:00,
2013-03-18 18:48:00,76.3,64.1,29.87,SW,225,0.0,0.0,66,0.00,BKN,,0.02,WeatherDisplay:10.37,2013-03-18 22:48:00,
2013-03-18 18:53:00,76.1,64.3,29.87,SW,225,0.0,0.0,67,0.00,BKN,,0.02,WeatherDisplay:10.37,2013-03-18 22:53:00,
2013-03-18 18:58:00,75.9,64.2,29.87,SW,225,0.0,0.0,67,0.00,BKN,,0.02,WeatherDisplay:10.37,2013-03-18 22:58:00,
2013-03-18 19:03:00,75.7,64.0,29.87,SW,225,0.0,0.0,67,0.00,BKN,,0.02,WeatherDisplay:10.37,2013-03-18 23:03:00,
2013-03-18 19:08:00,75.6,64.3,29.87,SW,225,0.0,0.0,68,0.00,BKN,,0.02,WeatherDisplay:10.37,2013-03-18 23:08:00,
2013-03-18 19:13:00,75.2,63.9,29.87,SW,225,0.0,0.0,68,0.00,BKN,,0.02,WeatherDisplay:10.37,2013-03-18 23:13:00,
2013-03-18 19:18:00,74.8,64.0,29.87,SW,225,0.0,0.0,69,0.00,BKN,,0.02,WeatherDisplay:10.37,2013-03-18 23:18:00,
2013-03-18 19:23:00,74.7,64.2,29.87,SW,225,0.0,0.0,70,0.00,OVC,,0.02,WeatherDisplay:10.37,2013-03-18 23:23:00,
2013-03-18 19:28:00,74.3,63.9,29.87,SW,225,0.0,0.0,70,0.00,OVC,,0.02,WeatherDisplay:10.37,2013-03-18 23:28:00,
2013-03-18 19:33:00,73.9,63.9,29.87,SW,225,0.0,0.0,71,0.00,OVC,,0.02,WeatherDisplay:10.37,2013-03-18 23:33:00,
2013-03-18 19:38:00,73.6,63.6,29.86,SW,225,0.0,0.0,71,0.00,OVC,,0.02,WeatherDisplay:10.37,2013-03-18 23:38:00,
2013-03-18 19:43:00,73.2,64.0,29.86,SW,225,0.0,0.0,73,0.00,OVC,,0.02,WeatherDisplay:10.37,2013-03-18 23:43:00,
2013-03-18 19:48:00,72.9,63.7,29.86,SW,225,0.0,0.0,73,0.00,OVC,,0.02,WeatherDisplay:10.37,2013-03-18 23:48:00,
2013-03-18 19:53:00,72.3,63.6,29.86,SW,225,0.0,0.0,74,0.00,OVC,,0.02,WeatherDisplay:10.37,2013-03-18 23:53:00,
2013-03-18 19:58:00,72.3,63.9,29.85,SW,225,0.0,0.0,75,0.00,OVC,,0.02,WeatherDisplay:10.37,2013-03-18 23:58:00,
2013-03-18 20:03:00,72.1,63.8,29.84,SW,225,0.0,0.0,75,0.00,OVC,,0.02,WeatherDisplay:10.37,2013-03-19 00:03:00,
2013-03-18 20:08:00,72.0,63.6,29.84,SW,225,0.0,0.0,75,0.00,OVC,,0.02,WeatherDisplay:10.37,2013-03-19 00:08:00,
2013-03-18 20:13:00,71.8,63.8,29.84,SW,225,0.0,0.0,76,0.00,OVC,,0.02,WeatherDisplay:10.37,2013-03-19 00:13:00,
2013-03-18 20:18:00,71.4,63.5,29.84,SW,225,0.0,0.0,76,0.00,OVC,,0.02,WeatherDisplay:10.37,2013-03-19 00:18:00,
2013-03-18 20:23:00,71.2,63.3,29.84,SW,225,0.0,0.0,76,0.00,OVC,,0.02,WeatherDisplay:10.37,2013-03-19 00:23:00,
2013-03-18 20:28:00,71.1,63.1,29.84,SW,225,0.0,0.0,76,0.00,OVC,,0.02,WeatherDisplay:10.37,2013-03-19 00:28:00,
2013-03-18 20:33:00,70.9,63.3,29.84,SW,225,0.0,0.0,77,0.00,OVC,,0.02,WeatherDisplay:10.37,2013-03-19 00:33:00,
2013-03-18 20:38:00,70.5,63.0,29.84,SW,225,0.0,0.0,77,0.00,OVC,,0.02,WeatherDisplay:10.37,2013-03-19 00:38:00,
2013-03-18 20:43:00,70.5,63.3,29.84,SW,225,0.0,0.0,78,0.00,OVC,,0.02,WeatherDisplay:10.37,2013-03-19 00:43:00,
2013-03-18 20:48:00,70.3,63.2,29.84,SW,225,0.0,0.0,78,0.00,OVC,,0.02,WeatherDisplay:10.37,2013-03-19 00:48:00,
2013-03-18 20:53:00,70.3,63.2,29.83,SW,225,0.1,1.1,78,0.00,OVC,,0.02,WeatherDisplay:10.37,2013-03-19 00:53:00,
2013-03-18 20:58:00,70.2,63.0,29.83,SW,225,0.0,0.0,78,0.00,OVC,,0.02,WeatherDisplay:10.37,2013-03-19 00:58:00,
2013-03-18 21:03:00,70.0,62.8,29.83,SW,225,0.0,0.0,78,0.00,OVC,,0.02,WeatherDisplay:10.37,2013-03-19 01:03:00,
2013-03-18 21:08:00,70.0,62.8,29.83,SW,225,0.0,0.0,78,0.00,OVC,,0.02,WeatherDisplay:10.37,2013-03-19 01:08:00,
2013-03-18 21:13:00,70.0,62.8,29.83,SW,225,0.0,0.0,78,0.00,OVC,,0.02,WeatherDisplay:10.37,2013-03-19 01:13:00,
2013-03-18 21:18:00,70.0,62.8,29.83,SW,225,0.0,0.0,78,0.00,OVC,,0.02,WeatherDisplay:10.37,2013-03-19 01:18:00,
2013-03-18 21:23:00,69.6,62.5,29.82,SW,225,0.0,0.0,78,0.00,OVC,,0.02,WeatherDisplay:10.37,2013-03-19 01:23:00,
2013-03-18 21:28:00,69.6,62.8,29.83,SW,225,0.0,0.0,79,0.00,OVC,,0.02,WeatherDisplay:10.37,2013-03-19 01:28:00,
2013-03-18 21:33:00,69.6,62.8,29.84,SW,225,0.0,0.0,79,0.00,OVC,,0.02,WeatherDisplay:10.37,2013-03-19 01:33:00,
2013-03-18 21:38:00,69.4,62.6,29.83,SW,225,0.0,0.0,79,0.00,OVC,,0.02,WeatherDisplay:10.37,2013-03-19 01:38:00,
2013-03-18 21:43:00,69.1,62.3,29.84,SW,225,0.0,0.0,79,0.00,OVC,,0.02,WeatherDisplay:10.37,2013-03-19 01:43:00,
2013-03-18 21:48:00,68.9,62.1,29.84,SW,225,0.0,0.0,79,0.00,OVC,,0.02,WeatherDisplay:10.37,2013-03-19 01:48:00,
2013-03-18 21:53:00,68.7,62.3,29.85,SW,225,0.0,0.0,80,0.00,OVC,,0.02,WeatherDisplay:10.37,2013-03-19 01:53:00,
2013-03-18 21:58:00,68.4,62.3,29.85,SW,225,0.0,0.0,81,0.00,OVC,,0.02,WeatherDisplay:10.37,2013-03-19 01:58:00,
2013-03-18 22:04:00,67.8,61.8,29.86,SW,225,0.0,0.0,81,0.00,OVC,,0.02,WeatherDisplay:10.37,2013-03-19 02:04:00,
2013-03-18 22:09:00,67.6,62.3,29.86,SW,225,0.0,0.0,83,0.00,OVC,,0.02,WeatherDisplay:10.37,2013-03-19 02:09:00,
2013-03-18 22:14:00,67.3,61.9,29.86,SW,225,0.0,0.0,83,0.00,OVC,,0.02,WeatherDisplay:10.37,2013-03-19 02:14:00,
2013-03-18 22:19:00,66.9,61.6,29.87,SW,225,0.0,0.0,83,0.00,OVC,,0.02,WeatherDisplay:10.37,2013-03-19 02:19:00,
2013-03-18 22:24:00,66.7,61.7,29.87,SW,225,0.0,0.0,84,0.00,OVC,,0.02,WeatherDisplay:10.37,2013-03-19 02:24:00,
2013-03-18 22:29:00,66.7,61.7,29.87,SW,225,0.0,0.0,84,0.00,OVC,,0.02,WeatherDisplay:10.37,2013-03-19 02:29:00,
2013-03-18 22:34:00,66.6,61.9,29.88,SW,225,0.0,0.0,85,0.00,OVC,,0.02,WeatherDisplay:10.37,2013-03-19 02:34:00,
2013-03-18 22:39:00,66.6,61.9,29.89,SW,225,0.0,0.0,85,0.00,OVC,,0.02,WeatherDisplay:10.37,2013-03-19 02:39:00,
2013-03-18 22:45:00,66.6,62.2,29.88,SW,225,0.0,0.0,86,0.00,OVC,,0.02,WeatherDisplay:10.37,2013-03-19 02:45:00,
2013-03-18 22:50:00,66.7,62.4,29.88,SW,225,0.0,0.0,86,0.00,OVC,,0.02,WeatherDisplay:10.37,2013-03-19 02:50:00,
2013-03-18 22:56:00,66.9,62.3,29.88,SW,225,0.0,0.0,85,0.00,OVC,,0.02,WeatherDisplay:10.37,2013-03-19 02:56:00,
2013-03-18 23:02:00,67.6,62.6,29.89,SW,225,0.0,0.0,84,0.00,OVC,,0.02,WeatherDisplay:10.37,2013-03-19 03:02:00,
2013-03-18 23:08:00,67.8,62.5,29.89,SW,225,0.0,0.0,83,0.00,OVC,,0.02,WeatherDisplay:10.37,2013-03-19 03:08:00,
2013-03-18 23:13:00,68.2,62.5,29.89,SW,225,0.0,0.0,82,0.00,OVC,,0.02,WeatherDisplay:10.37,2013-03-19 03:13:00,
2013-03-18 23:19:00,68.0,62.6,29.89,SW,225,0.0,0.0,83,0.00,OVC,,0.02,WeatherDisplay:10.37,2013-03-19 03:19:00,
2013-03-18 23:25:00,67.8,62.5,29.90,SW,225,0.0,0.0,83,0.00,OVC,,0.02,WeatherDisplay:10.37,2013-03-19 03:25:00,
2013-03-18 23:31:00,67.6,62.3,29.90,SW,225,0.0,0.0,83,0.00,OVC,,0.02,WeatherDisplay:10.37,2013-03-19 03:31:00,
2013-03-18 23:36:00,67.5,62.1,29.89,SW,225,0.0,0.0,83,0.00,OVC,,0.02,WeatherDisplay:10.37,2013-03-19 03:36:00,
2013-03-18 23:42:00,67.3,62.3,29.89,SW,225,0.0,0.0,84,0.00,OVC,,0.02,WeatherDisplay:10.37,2013-03-19 03:42:00,
2013-03-18 23:47:00,66.9,61.9,29.90,SW,225,0.0,0.0,84,0.00,OVC,,0.02,WeatherDisplay:10.37,2013-03-19 03:47:00,
2013-03-18 23:53:00,66.4,61.7,29.90,SW,225,0.0,0.0,85,0.00,OVC,,0.02,WeatherDisplay:10.37,2013-03-19 03:53:00,
2013-03-18 23:59:00,65.8,61.5,29.89,SW,225,0.0,0.0,86,0.00,RA,,0.00,WeatherDisplay:10.37,2013-03-19 03:59:00,